Time;durP1;ratioP1;P1;durP2;ratioP2;P2;SDS_P1;SDS_P2;PMS_P1;PMS_P2;Temp;Humidity;BMP_temperature;BMP_pressure;BME280_temperature;BME280_humidity;BME280_pressure;Samples;Min_cycle;Max_cycle;Signal;HPM_P1;HPM_P2
2020/12/30 00:00:32;;;;;;;7.30;4.10;;;;;;;1.40;100.00;99068.66;5021689;28;20756;-70
2020/12/30 00:02:58;;;;;;;6.67;4.27;;;;;;;1.34;100.00;99064.34;5023928;28;20053;-70
2020/12/30 00:05:25;;;;;;;5.83;3.73;;;;;;;1.18;100.00;99065.38;5028403;28;20090;-70
2020/12/30 00:07:51;;;;;;;6.47;3.83;;;;;;;1.15;100.00;99072.34;5027060;28;20065;-70
2020/12/30 00:10:18;;;;;;;8.40;4.03;;;;;;;1.15;100.00;99068.00;5022440;28;20077;-71
2020/12/30 00:12:45;;;;;;;8.10;4.47;;;;;;;1.07;100.00;99075.84;5019317;28;20046;-70
2020/12/30 00:15:12;;;;;;;7.40;3.87;;;;;;;1.04;100.00;99082.81;5017049;28;20038;-70
2020/12/30 00:17:40;;;;;;;6.83;4.00;;;;;;;0.96;100.00;99074.22;5014973;28;20041;-71
2020/12/30 00:20:11;;;;;;;5.57;3.87;;;;;;;0.83;100.00;99076.03;5015901;28;20042;-69
2020/12/30 00:22:37;;;;;;;6.60;3.77;;;;;;;0.80;100.00;99076.91;5019243;28;20593;-70
2020/12/30 00:25:05;;;;;;;7.93;4.47;;;;;;;0.79;100.00;99084.72;5018013;28;20072;-71
2020/12/30 00:27:31;;;;;;;7.63;5.10;;;;;;;0.73;100.00;99080.41;5015638;28;20034;-70
2020/12/30 00:29:57;;;;;;;6.70;4.37;;;;;;;0.72;100.00;99083.03;5020112;28;20840;-70
2020/12/30 00:32:23;;;;;;;7.50;4.27;;;;;;;0.70;100.00;99079.59;5017383;28;20656;-70
2020/12/30 00:34:49;;;;;;;6.33;4.57;;;;;;;0.63;100.00;99078.75;5007378;28;20670;-70
2020/12/30 00:37:16;;;;;;;6.47;4.20;;;;;;;0.61;100.00;99084.84;5014263;28;20489;-70
2020/12/30 00:39:42;;;;;;;6.07;3.93;;;;;;;0.57;100.00;99082.25;5016876;28;20092;-70
2020/12/30 00:42:08;;;;;;;8.00;4.13;;;;;;;0.59;100.00;99082.25;4999537;28;20135;-70
2020/12/30 00:44:34;;;;;;;5.90;4.27;;;;;;;0.50;100.00;99083.16;5019482;28;20068;-69
2020/12/30 00:47:00;;;;;;;6.37;4.63;;;;;;;0.47;100.00;99080.56;5011452;28;20462;-70
2020/12/30 00:49:27;;;;;;;6.63;4.37;;;;;;;0.46;100.00;99076.25;5017581;28;20045;-70
2020/12/30 00:51:57;;;;;;;6.50;4.20;;;;;;;0.48;100.00;99082.28;5010538;28;20137;-70
2020/12/30 00:54:24;;;;;;;10.17;5.07;;;;;;;0.46;100.00;99089.25;5019430;28;20046;-69
2020/12/30 00:56:51;;;;;;;6.37;4.83;;;;;;;0.39;100.00;99082.34;5017428;28;20033;-70
2020/12/30 00:59:18;;;;;;;8.73;4.70;;;;;;;0.36;100.00;99086.72;5005339;28;20042;-70
2020/12/30 01:01:44;;;;;;;6.70;4.73;;;;;;;0.28;100.00;99090.19;5013708;28;20030;-70
2020/12/30 01:04:10;;;;;;;7.10;4.87;;;;;;;0.24;100.00;99098.00;5018961;28;20663;-71
2020/12/30 01:06:37;;;;;;;7.43;4.83;;;;;;;0.15;100.00;99098.91;5009561;28;20046;-71
2020/12/30 01:09:05;;;;;;;8.10;5.30;;;;;;;0.05;100.00;99099.81;5013649;28;20472;-71
2020/12/30 01:11:32;;;;;;;8.33;5.10;;;;;;;0.04;100.00;99097.22;5007058;28;20064;-70
2020/12/30 01:13:59;;;;;;;6.47;4.27;;;;;;;-0.10;100.00;99105.91;5005441;28;20048;-72
2020/12/30 01:16:26;;;;;;;8.03;5.53;;;;;;;-0.12;100.00;99105.03;5014640;28;20127;-72
2020/12/30 01:18:52;;;;;;;10.63;5.33;;;;;;;-0.08;100.00;99099.00;5015219;28;20073;-69
2020/12/30 01:21:18;;;;;;;9.27;6.03;;;;;;;-0.11;100.00;99104.16;5012229;28;20046;-70
2020/12/30 01:23:44;;;;;;;9.87;5.63;;;;;;;-0.21;100.00;99110.25;5017708;28;20545;-72
2020/12/30 01:26:11;;;;;;;7.77;5.60;;;;;;;-0.26;100.00;99106.78;5022898;28;20045;-72
2020/12/30 01:28:38;;;;;;;6.80;5.00;;;;;;;-0.35;100.00;99120.66;5011078;28;20044;-71
2020/12/30 01:31:04;;;;;;;7.50;5.00;;;;;;;-0.40;100.00;99118.94;5011545;28;20154;-72
2020/12/30 01:33:30;;;;;;;20.40;8.40;;;;;;;-0.50;100.00;99123.28;5012506;28;20107;-72
2020/12/30 01:35:56;;;;;;;15.27;7.70;;;;;;;-0.54;100.00;99131.06;5014043;28;20034;-74
2020/12/30 01:38:22;;;;;;;11.93;6.60;;;;;;;-0.57;100.00;99134.53;5016324;28;21051;-73
2020/12/30 01:40:58;;;;;;;11.53;6.03;;;;;;;-0.57;100.00;99132.78;5017928;28;20045;-71
2020/12/30 01:43:24;;;;;;;12.23;6.47;;;;;;;-0.62;100.00;99124.13;5018913;28;20078;-72
2020/12/30 01:45:51;;;;;;;17.13;8.83;;;;;;;-0.71;100.00;99134.50;5008550;28;20042;-72
2020/12/30 01:48:20;;;;;;;13.83;7.63;;;;;;;-0.78;100.00;99130.19;5013038;28;20187;-73
2020/12/30 01:50:46;;;;;;;8.83;5.93;;;;;;;-0.76;100.00;99130.19;5011671;28;20096;-72
2020/12/30 01:53:12;;;;;;;9.63;5.53;;;;;;;-0.85;100.00;99131.91;5010203;28;20117;-73
2020/12/30 01:55:40;;;;;;;11.27;6.23;;;;;;;-0.81;100.00;99147.47;5010530;28;20054;-72
2020/12/30 01:58:10;;;;;;;10.70;6.40;;;;;;;-0.83;100.00;99137.13;5030251;28;20038;-71
2020/12/30 02:00:37;;;;;;;10.50;6.13;;;;;;;-0.86;100.00;99139.69;5012457;28;20042;-73
2020/12/30 02:03:04;;;;;;;8.70;5.97;;;;;;;-0.94;100.00;99149.19;5019221;28;20038;-73
2020/12/30 02:05:31;;;;;;;12.63;7.07;;;;;;;-0.98;100.00;99144.88;5014828;28;20150;-72
2020/12/30 02:08:02;;;;;;;10.43;6.40;;;;;;;-1.06;100.00;99155.22;5016290;28;20080;-75
2020/12/30 02:10:28;;;;;;;9.97;6.30;;;;;;;-1.14;100.00;99149.16;5014427;28;20049;-72
2020/12/30 02:12:55;;;;;;;13.90;7.27;;;;;;;-1.18;100.00;99150.00;5023993;28;20116;-72
2020/12/30 02:15:23;;;;;;;12.27;6.83;;;;;;;-1.21;100.00;99153.44;5011959;28;20495;-74
2020/12/30 02:17:49;;;;;;;16.53;9.17;;;;;;;-1.26;100.00;99155.19;5015969;28;20053;-72
2020/12/30 02:20:15;;;;;;;12.37;7.77;;;;;;;-1.31;100.00;99156.88;5018139;28;20697;-73
2020/12/30 02:22:43;;;;;;;14.83;7.17;;;;;;;-1.33;100.00;99153.44;5018836;28;20060;-74
2020/12/30 02:25:10;;;;;;;11.30;7.13;;;;;;;-1.27;100.00;99161.19;5003676;28;20494;-73
2020/12/30 02:27:36;;;;;;;11.87;6.80;;;;;;;-1.29;100.00;99156.88;5021744;28;20502;-72
2020/12/30 02:30:03;;;;;;;12.60;7.13;;;;;;;-1.37;100.00;99158.59;5015730;28;20095;-74
2020/12/30 02:32:30;;;;;;;14.80;7.77;;;;;;;-1.46;100.00;99162.88;4997740;28;20049;-74
2020/12/30 02:34:56;;;;;;;15.27;8.67;;;;;;;-1.51;100.00;99153.38;5020597;28;20116;-73
2020/12/30 02:37:22;;;;;;;11.70;7.57;;;;;;;-1.46;100.00;99172.38;5020460;28;20037;-73
2020/12/30 02:39:48;;;;;;;10.57;6.53;;;;;;;-1.43;100.00;99178.44;5013148;28;20057;-73
2020/12/30 02:42:15;;;;;;;10.33;6.90;;;;;;;-1.50;100.00;99181.88;5013968;28;20119;-71
2020/12/30 02:44:41;;;;;;;12.67;7.20;;;;;;;-1.44;100.00;99179.28;5020650;28;20072;-73
2020/12/30 02:47:07;;;;;;;11.33;6.87;;;;;;;-1.46;100.00;99183.59;5015553;28;20042;-72
2020/12/30 02:49:33;;;;;;;9.83;6.30;;;;;;;-1.53;100.00;99181.81;5016746;28;20512;-74
2020/12/30 02:51:59;;;;;;;12.57;6.90;;;;;;;-1.57;100.00;99192.19;5022718;28;20067;-73
2020/12/30 02:54:25;;;;;;;11.73;7.30;;;;;;;-1.63;100.00;99181.78;5019067;28;20053;-71
2020/12/30 02:56:52;;;;;;;9.63;6.13;;;;;;;-1.65;100.00;99188.69;4998072;28;20103;-71
2020/12/30 02:59:18;;;;;;;9.80;6.73;;;;;;;-1.70;100.00;99184.34;5011438;28;20096;-71
2020/12/30 03:01:44;;;;;;;12.60;7.70;;;;;;;-1.54;100.00;99177.50;5018276;28;20515;-74
2020/12/30 03:04:10;;;;;;;11.93;7.80;;;;;;;-1.54;100.00;99182.69;5018947;28;20049;-72
2020/12/30 03:06:37;;;;;;;11.47;7.20;;;;;;;-1.50;100.00;99175.81;5011583;28;20037;-72
2020/12/30 03:09:03;;;;;;;13.67;8.17;;;;;;;-1.45;100.00;99181.88;5007107;28;20453;-72
2020/12/30 03:11:29;;;;;;;12.93;7.83;;;;;;;-1.40;100.00;99182.75;5018376;28;20543;-72
2020/12/30 03:13:55;;;;;;;13.97;8.53;;;;;;;-1.35;100.00;99186.22;5017269;28;20041;-73
2020/12/30 03:16:21;;;;;;;12.87;7.90;;;;;;;-1.34;100.00;99179.34;5011907;28;20633;-72
2020/12/30 03:18:48;;;;;;;12.30;7.73;;;;;;;-1.33;100.00;99170.69;5017545;28;20030;-72
2020/12/30 03:21:14;;;;;;;11.13;7.23;;;;;;;-1.37;100.00;99175.00;5017003;28;20048;-72
2020/12/30 03:23:40;;;;;;;12.17;7.17;;;;;;;-1.38;100.00;99164.63;5015520;28;20050;-72
2020/12/30 03:26:06;;;;;;;12.33;7.47;;;;;;;-1.37;100.00;99166.34;5010907;28;20126;-72
2020/12/30 03:28:33;;;;;;;14.17;7.60;;;;;;;-1.28;100.00;99169.84;5006118;28;20037;-74
2020/12/30 03:30:59;;;;;;;12.23;8.57;;;;;;;-1.14;100.00;99178.53;5021688;28;20651;-74
2020/12/30 03:33:25;;;;;;;11.00;7.07;;;;;;;-1.22;100.00;99181.94;5012006;28;20049;-72
2020/12/30 03:35:51;;;;;;;12.63;8.07;;;;;;;-1.27;100.00;99194.00;5016251;28;20042;-72
2020/12/30 03:38:17;;;;;;;13.23;7.67;;;;;;;-1.30;100.00;99196.59;4994491;28;20107;-72
2020/12/30 03:40:43;;;;;;;11.53;6.90;;;;;;;-1.39;100.00;99189.66;5012644;28;20419;-74
2020/12/30 03:43:09;;;;;;;10.80;7.30;;;;;;;-1.46;100.00;99190.50;5011174;28;20069;-72
2020/12/30 03:45:35;;;;;;;10.47;6.03;;;;;;;-1.63;100.00;99189.56;5015509;28;20061;-74
2020/12/30 03:48:01;;;;;;;13.93;7.17;;;;;;;-1.72;100.00;99185.19;5019855;28;20438;-71
2020/12/30 03:50:28;;;;;;;10.97;6.87;;;;;;;-1.77;100.00;99186.88;5014814;28;20042;-71
2020/12/30 03:52:54;;;;;;;11.27;7.00;;;;;;;-1.84;100.00;99187.75;5022768;28;20695;-71
2020/12/30 03:55:20;;;;;;;9.67;5.90;;;;;;;-1.93;100.00;99185.97;5015389;28;20123;-72
2020/12/30 03:57:46;;;;;;;12.73;7.10;;;;;;;-1.91;100.00;99188.56;5005663;28;20514;-71
2020/12/30 04:00:12;;;;;;;12.80;7.87;;;;;;;-1.87;100.00;99185.97;5021352;28;20124;-72
2020/12/30 04:02:38;;;;;;;9.17;6.57;;;;;;;-1.99;100.00;99188.50;5096650;22;20152;-91
2020/12/30 04:05:07;;;;;;;9.00;5.93;;;;;;;-2.03;100.00;99187.59;5020881;28;20040;-91
2020/12/30 04:07:33;;;;;;;10.67;6.63;;;;;;;-2.06;100.00;99184.16;5016061;28;20022;-91
2020/12/30 04:10:41;;;;;;;14.43;7.20;;;;;;;-2.02;100.00;99197.13;4992392;23;20132;-72
2020/12/30 04:13:07;;;;;;;10.73;7.17;;;;;;;-1.95;100.00;99195.41;4963932;28;20039;-72
2020/12/30 04:15:34;;;;;;;13.03;7.53;;;;;;;-1.94;100.00;99198.88;4966757;28;20039;-72
2020/12/30 04:18:00;;;;;;;11.97;7.50;;;;;;;-1.94;100.00;99197.16;4966183;28;20626;-72
2020/12/30 04:20:26;;;;;;;11.77;7.73;;;;;;;-1.87;100.00;99200.63;4956695;28;20031;-72
2020/12/30 04:22:52;;;;;;;11.60;7.10;;;;;;;-1.88;100.00;99204.09;4971806;28;20134;-72
2020/12/30 04:25:18;;;;;;;9.67;6.33;;;;;;;-1.88;100.00;99196.31;4974869;28;20066;-72
2020/12/30 04:27:44;;;;;;;13.63;8.27;;;;;;;-1.88;100.00;99204.09;4973687;28;20142;-72
2020/12/30 04:30:10;;;;;;;15.27;7.87;;;;;;;-1.81;100.00;99213.63;4962587;28;20145;-72
2020/12/30 04:32:37;;;;;;;13.77;7.80;;;;;;;-1.77;100.00;99207.59;4976667;28;20045;-72
2020/12/30 04:35:03;;;;;;;11.87;6.90;;;;;;;-1.79;100.00;99215.34;4964179;28;20441;-72
2020/12/30 04:37:30;;;;;;;11.00;7.23;;;;;;;-1.79;100.00;99215.34;4962507;28;20043;-70
2020/12/30 04:39:56;;;;;;;14.13;7.60;;;;;;;-1.76;100.00;99219.72;4963764;28;20745;-70
2020/12/30 04:42:30;;;;;;;11.67;6.90;;;;;;;-1.77;100.00;99224.00;4950184;28;20043;-72
2020/12/30 04:44:57;;;;;;;14.10;7.10;;;;;;;-1.80;100.00;99224.00;4964660;28;20051;-72
2020/12/30 04:47:24;;;;;;;13.93;7.23;;;;;;;-1.79;100.00;99220.53;4964681;28;20122;-74
2020/12/30 04:49:50;;;;;;;14.30;8.57;;;;;;;-1.77;100.00;99224.00;4975774;28;20636;-76
2020/12/30 04:52:18;;;;;;;14.37;8.10;;;;;;;-1.78;100.00;99214.50;4968848;28;20085;-74
2020/12/30 04:54:45;;;;;;;12.83;7.30;;;;;;;-1.79;100.00;99214.50;4965811;28;20042;-74
2020/12/30 04:57:22;;;;;;;11.60;7.47;;;;;;;-1.82;100.00;99220.53;4978672;28;20043;-72
2020/12/30 04:59:52;;;;;;;13.70;8.00;;;;;;;-1.83;100.00;99223.97;4964015;28;20058;-73
2020/12/30 05:02:23;;;;;;;13.77;7.70;;;;;;;-1.83;100.00;99225.72;4959188;28;20030;-77
2020/12/30 05:04:49;;;;;;;11.73;7.27;;;;;;;-1.84;100.00;99232.59;4968817;28;20046;-73
2020/12/30 05:07:15;;;;;;;11.87;7.23;;;;;;;-1.86;100.00;99229.13;4962233;28;20066;-72
2020/12/30 05:09:43;;;;;;;11.00;7.10;;;;;;;-1.83;100.00;99238.66;4965177;28;20035;-71
2020/12/30 05:12:13;;;;;;;15.37;7.90;;;;;;;-1.82;100.00;99238.66;4969230;28;20554;-71
2020/12/30 05:14:40;;;;;;;14.67;7.80;;;;;;;-1.80;100.00;99236.94;4966443;28;20041;-72
2020/12/30 05:17:07;;;;;;;14.63;7.63;;;;;;;-1.67;100.00;99242.19;4967120;28;20045;-73
2020/12/30 05:19:34;;;;;;;11.23;8.30;;;;;;;-1.67;100.00;99240.47;4980048;28;20125;-72
2020/12/30 05:22:00;;;;;;;12.07;7.50;;;;;;;-1.61;100.00;99248.25;4970327;28;20039;-73
2020/12/30 05:24:30;;;;;;;11.93;7.60;;;;;;;-1.60;100.00;99249.97;4969515;28;20038;-72
2020/12/30 05:27:00;;;;;;;12.23;8.57;;;;;;;-1.58;100.00;99255.19;4965333;28;20042;-72
2020/12/30 05:29:27;;;;;;;11.77;7.07;;;;;;;-1.61;100.00;99256.03;4971858;28;20112;-72
2020/12/30 05:31:54;;;;;;;12.50;6.70;;;;;;;-1.64;100.00;99255.16;4970538;28;20050;-75
2020/12/30 05:34:22;;;;;;;14.93;7.70;;;;;;;-1.60;100.00;99262.06;4936791;28;20505;-72
2020/12/30 05:36:49;;;;;;;11.97;7.37;;;;;;;-1.63;100.00;99259.47;4969801;28;20073;-72
2020/12/30 05:39:28;;;;;;;11.10;7.63;;;;;;;-1.57;100.00;99264.69;4967812;28;20563;-72
2020/12/30 05:42:11;;;;;;;14.53;7.60;;;;;;;-1.57;100.00;99256.94;4974575;28;20515;-73
2020/12/30 05:44:39;;;;;;;12.13;7.00;;;;;;;-1.59;100.00;99259.50;4976748;28;20114;-72
2020/12/30 05:47:24;;;;;;;12.27;7.10;;;;;;;-1.60;100.00;99262.06;4972074;28;20031;-73
2020/12/30 05:49:52;;;;;;;13.17;7.83;;;;;;;-1.53;100.00;99274.19;4968680;28;20106;-71
2020/12/30 05:52:18;;;;;;;13.33;7.47;;;;;;;-1.52;100.00;99270.75;4984571;28;20146;-71
2020/12/30 05:54:49;;;;;;;10.47;6.03;;;;;;;-1.52;100.00;99266.44;4965846;28;20046;-72
2020/12/30 05:57:20;;;;;;;11.90;7.30;;;;;;;-1.51;100.00;99268.19;4966542;28;20042;-72
2020/12/30 05:59:46;;;;;;;12.37;7.30;;;;;;;-1.49;100.00;99274.25;4975752;28;20070;-75
2020/12/30 06:02:13;;;;;;;11.93;7.10;;;;;;;-1.50;100.00;99276.81;4967546;28;20099;-74
2020/12/30 06:04:39;;;;;;;12.57;7.00;;;;;;;-1.49;100.00;99282.00;4966484;28;20035;-71
2020/12/30 06:07:05;;;;;;;10.07;6.33;;;;;;;-1.45;100.00;99290.66;4952316;28;20074;-73
2020/12/30 06:09:47;;;;;;;11.80;7.63;;;;;;;-1.46;100.00;99289.78;4962127;28;20042;-74
2020/12/30 06:12:13;;;;;;;10.40;6.70;;;;;;;-1.45;100.00;99293.25;4968436;28;20110;-73
2020/12/30 06:14:40;;;;;;;11.23;6.20;;;;;;;-1.47;100.00;99292.38;4978285;28;20039;-74
2020/12/30 06:17:12;;;;;;;14.23;7.23;;;;;;;-1.46;100.00;99299.28;4971547;28;20066;-76
2020/12/30 06:19:43;;;;;;;11.60;6.73;;;;;;;-1.49;100.00;99307.03;4979629;28;20523;-72
2020/12/30 06:22:24;;;;;;;9.50;5.97;;;;;;;-1.54;100.00;99314.78;4974051;28;20440;-74
2020/12/30 06:24:55;;;;;;;11.33;6.87;;;;;;;-1.56;100.00;99313.03;4972159;28;20046;-75
2020/12/30 06:27:23;;;;;;;9.20;6.13;;;;;;;-1.65;100.00;99312.97;4968709;28;20050;-74
2020/12/30 06:29:52;;;;;;;10.80;5.63;;;;;;;-1.73;100.00;99324.16;4976793;28;20703;-71
2020/12/30 06:32:33;;;;;;;11.60;6.50;;;;;;;-1.81;100.00;99323.22;4964211;28;20565;-74
2020/12/30 06:35:01;;;;;;;7.67;5.23;;;;;;;-1.92;100.00;99329.19;4975672;28;20043;-72
2020/12/30 06:37:32;;;;;;;8.07;5.17;;;;;;;-2.09;100.00;99334.22;4969130;28;20038;-74
2020/12/30 06:40:20;;;;;;;6.97;4.67;;;;;;;-2.23;100.00;99344.41;4958462;28;20542;-72
2020/12/30 06:42:47;;;;;;;8.17;5.80;;;;;;;-2.12;100.00;99340.19;4969005;28;20063;-73
2020/12/30 06:45:14;;;;;;;8.90;5.80;;;;;;;-2.25;100.00;99353.91;4965746;28;20113;-71
2020/12/30 06:47:57;;;;;;;7.60;4.93;;;;;;;-2.41;100.00;99352.88;4985369;28;20054;-75
2020/12/30 06:50:23;;;;;;;7.07;4.33;;;;;;;-2.51;100.00;99350.19;4969157;28;20101;-73
2020/12/30 06:52:49;;;;;;;7.00;5.07;;;;;;;-2.60;100.00;99356.97;4973391;28;20058;-74
2020/12/30 06:55:16;;;;;;;9.43;5.03;;;;;;;-2.66;100.00;99359.47;4979641;28;20047;-73
2020/12/30 06:57:45;;;;;;;8.63;5.17;;;;;;;-2.75;100.00;99354.22;4976487;28;20046;-76
2020/12/30 07:00:30;;;;;;;6.93;4.80;;;;;;;-2.80;100.00;99355.84;4960982;28;20069;-76
2020/12/30 07:03:18;;;;;;;7.90;5.17;;;;;;;-2.80;100.00;99361.03;4962583;28;20484;-75
2020/12/30 07:05:46;;;;;;;7.83;5.20;;;;;;;-2.86;100.00;99363.53;4975801;28;20074;-75
2020/12/30 07:08:38;;;;;;;9.47;5.50;;;;;;;-2.93;100.00;99367.78;4985620;28;20074;-71
2020/12/30 07:11:04;;;;;;;7.03;5.23;;;;;;;-2.95;100.00;99363.41;4978562;28;20066;-73
2020/12/30 07:13:39;;;;;;;10.87;5.77;;;;;;;-2.96;100.00;99367.72;4979356;28;20122;-75
2020/12/30 07:16:32;;;;;;;9.87;6.17;;;;;;;-2.90;100.00;99364.34;4969595;28;20062;-72
2020/12/30 07:18:58;;;;;;;9.03;5.43;;;;;;;-2.91;100.00;99363.50;4963901;28;20078;-73
2020/12/30 07:21:25;;;;;;;9.47;6.40;;;;;;;-2.84;100.00;99372.19;4969161;28;20125;-72
2020/12/30 07:23:53;;;;;;;9.43;6.67;;;;;;;-2.85;100.00;99380.81;4970700;28;20527;-74
2020/12/30 07:26:21;;;;;;;10.47;6.03;;;;;;;-2.85;100.00;99379.09;4985898;28;20537;-74
2020/12/30 07:28:47;;;;;;;9.60;6.23;;;;;;;-2.87;100.00;99378.16;4985466;28;20049;-74
2020/12/30 07:31:16;;;;;;;9.73;6.47;;;;;;;-2.86;100.00;99382.50;4969535;28;20440;-71
2020/12/30 07:33:43;;;;;;;8.93;5.17;;;;;;;-2.88;100.00;99381.59;4953678;28;20050;-74
2020/12/30 07:36:09;;;;;;;12.20;5.70;;;;;;;-2.92;100.00;99378.97;4985256;28;20408;-72
2020/12/30 07:38:36;;;;;;;10.67;6.37;;;;;;;-2.92;100.00;99389.31;4969100;28;20745;-72
2020/12/30 07:41:08;;;;;;;10.23;5.50;;;;;;;-2.92;100.00;99385.00;4969113;28;20039;-73
2020/12/30 07:43:44;;;;;;;9.70;6.70;;;;;;;-2.89;100.00;99390.22;4969087;28;20045;-71
2020/12/30 07:46:21;;;;;;;12.87;6.47;;;;;;;-2.84;100.00;99385.13;4985245;28;20439;-71
2020/12/30 07:48:47;;;;;;;11.80;6.93;;;;;;;-2.81;100.00;99387.72;4951218;28;20071;-72
2020/12/30 07:51:14;;;;;;;16.30;7.33;;;;;;;-2.74;100.00;99396.44;4968806;28;20042;-72
2020/12/30 07:53:40;;;;;;;14.20;7.53;;;;;;;-2.66;100.00;99387.91;4968252;28;20052;-72
2020/12/30 07:56:23;;;;;;;12.17;7.27;;;;;;;-2.63;100.00;99387.94;4952072;28;20611;-71
2020/12/30 07:58:49;;;;;;;14.23;7.37;;;;;;;-2.60;100.00;99398.34;4980518;28;20059;-74
2020/12/30 08:01:19;;;;;;;14.97;7.53;;;;;;;-2.57;100.00;99392.34;4965292;28;20130;-74
2020/12/30 08:03:46;;;;;;;17.27;8.53;;;;;;;-2.51;100.00;99399.31;4961317;28;20039;-71
2020/12/30 08:06:13;;;;;;;16.43;8.40;;;;;;;-2.48;100.00;99407.94;4980305;28;20116;-75
2020/12/30 08:08:44;;;;;;;14.47;7.70;;;;;;;-2.47;100.00;99407.09;4964562;28;20101;-76
2020/12/30 08:11:10;;;;;;;15.97;8.50;;;;;;;-2.39;100.00;99415.81;4989473;28;20582;-72
2020/12/30 08:13:41;;;;;;;16.77;9.47;;;;;;;-2.31;100.00;99418.50;4932228;29;20050;-75
2020/12/30 08:16:10;;;;;;;15.30;8.83;;;;;;;-2.25;100.00;99415.97;4981075;28;20054;-71
2020/12/30 08:18:36;;;;;;;16.13;8.80;;;;;;;-2.17;100.00;99422.09;4968651;28;20387;-76
2020/12/30 08:21:10;;;;;;;12.60;8.10;;;;;;;-2.09;100.00;99427.38;4970482;28;20047;-74
2020/12/30 08:23:36;;;;;;;;;;;;;;;-2.02;100.00;99430.03;4969508;28;20031;-72
2020/12/30 08:26:03;;;;;;;18.83;8.63;;;;;;;-1.98;100.00;99425.75;4982730;28;20283;-72
2020/12/30 08:28:31;;;;;;;14.00;8.77;;;;;;;-1.93;100.00;99436.13;4980321;28;20045;-75
2020/12/30 08:30:59;;;;;;;16.23;9.40;;;;;;;-1.87;100.00;99434.47;4972343;28;20404;-73
2020/12/30 08:33:25;;;;;;;18.87;8.87;;;;;;;-1.82;100.00;99439.72;4963406;28;20105;-75
2020/12/30 08:35:57;;;;;;;17.80;9.43;;;;;;;-1.74;100.00;99440.66;4975928;28;20066;-75
2020/12/30 08:38:24;;;;;;;16.33;8.80;;;;;;;-1.65;100.00;99439.88;4955604;28;20090;-72
2020/12/30 08:40:53;;;;;;;16.33;9.33;;;;;;;-1.58;100.00;99442.53;4967997;28;20069;-77
2020/12/30 08:43:38;;;;;;;14.23;8.10;;;;;;;-1.52;100.00;99445.13;4951865;28;20412;-70
2020/12/30 08:46:13;;;;;;;14.10;8.43;;;;;;;-1.37;100.00;99448.72;4967283;28;20031;-72
2020/12/30 08:48:46;;;;;;;14.37;8.27;;;;;;;-1.32;100.00;99445.31;4961111;28;20101;-72
2020/12/30 08:51:25;;;;;;;15.05;8.20;;;;;;;-1.14;100.00;99455.81;4979802;28;20054;-76
2020/12/30 08:53:51;;;;;;;15.13;7.93;;;;;;;-1.07;100.00;99454.13;4961528;28;20050;-73
2020/12/30 08:56:18;;;;;;;16.17;9.40;;;;;;;-1.01;100.00;99456.78;4975639;28;20047;-76
2020/12/30 08:58:51;;;;;;;11.90;7.47;;;;;;;-0.92;100.00;99462.03;4982580;28;20101;-75
2020/12/30 09:01:25;;;;;;;14.60;8.30;;;;;;;-0.88;100.00;99456.00;4959554;28;20492;-72
2020/12/30 09:03:52;;;;;;;13.23;7.60;;;;;;;-0.74;100.00;99463.00;4981648;28;20105;-75
2020/12/30 09:06:26;;;;;;;15.63;8.93;;;;;;;-0.75;100.00;99459.53;4980563;28;20038;-72
2020/12/30 09:08:52;;;;;;;14.47;8.20;;;;;;;-0.67;100.00;99470.81;4962214;28;20555;-74
2020/12/30 09:11:19;;;;;;;10.83;7.27;;;;;;;-0.53;100.00;99470.00;4964239;28;20039;-72
2020/12/30 09:13:45;;;;;;;11.90;7.83;;;;;;;-0.42;100.00;99473.50;4977749;28;20337;-75
2020/12/30 09:16:11;;;;;;;12.07;7.07;;;;;;;-0.31;100.00;99475.31;4967349;28;20047;-74
2020/12/30 09:18:37;;;;;;;11.87;6.87;;;;;;;-0.22;100.00;99474.47;4948037;28;20110;-75
2020/12/30 09:21:04;;;;;;;14.43;7.13;;;;;;;-0.20;100.00;99475.34;4978346;28;20046;-72
2020/12/30 09:23:30;;;;;;;9.93;7.10;;;;;;;-0.13;100.00;99477.09;4966629;28;20027;-75
2020/12/30 09:25:56;;;;;;;11.43;7.20;;;;;;;0.02;100.00;99472.84;4950423;28;20078;-74
2020/12/30 09:28:24;;;;;;;18.23;12.10;;;;;;;1.10;100.00;99465.13;4968995;28;20046;-77
2020/12/30 09:30:55;;;;;;;12.97;7.27;;;;;;;2.64;100.00;99464.41;4965420;28;20046;-72
2020/12/30 09:33:23;;;;;;;8.33;5.10;;;;;;;3.64;100.00;99466.94;4966938;28;20035;-73
2020/12/30 09:35:49;;;;;;;6.47;4.97;;;;;;;4.70;85.78;99448.03;4953722;28;20050;-73
2020/12/30 09:38:20;;;;;;;6.17;4.40;;;;;;;5.31;83.96;99454.84;4972667;28;20067;-73
2020/12/30 09:40:48;;;;;;;5.97;4.07;;;;;;;5.70;79.12;99460.19;4968827;28;20038;-72
2020/12/30 09:43:17;;;;;;;6.67;4.20;;;;;;;5.98;75.11;99461.41;4963820;28;20067;-71
2020/12/30 09:45:44;;;;;;;8.67;4.70;;;;;;;6.66;74.72;99466.88;4975005;28;20047;-71
2020/12/30 09:48:14;;;;;;;5.57;3.90;;;;;;;6.67;70.23;99468.59;4954174;28;20085;-72
2020/12/30 09:50:42;;;;;;;6.03;3.90;;;;;;;6.89;70.69;99463.66;4965400;28;20459;-71
2020/12/30 09:53:08;;;;;;;7.40;4.30;;;;;;;6.66;71.73;99464.25;4953314;28;20072;-67
2020/12/30 09:55:34;;;;;;;5.93;3.97;;;;;;;6.84;69.74;99459.44;4983732;28;20605;-70
2020/12/30 09:58:00;;;;;;;5.80;3.75;;;;;;;6.99;69.49;99456.44;4966577;28;20055;-69
2020/12/30 10:00:27;;;;;;;6.40;3.80;;;;;;;6.43;69.89;99456.03;4975472;28;20257;-69
2020/12/30 10:02:53;;;;;;;6.60;4.67;;;;;;;5.37;72.38;99452.09;4964027;28;20098;-69
2020/12/30 10:05:19;;;;;;;6.10;4.00;;;;;;;4.53;75.98;99467.44;4964678;28;20696;-69
2020/12/30 10:07:46;;;;;;;7.40;4.97;;;;;;;3.81;79.37;99464.97;4978947;28;20038;-69
2020/12/30 10:10:12;;;;;;;6.07;4.50;;;;;;;3.15;82.67;99462.22;4966807;28;20042;-69
2020/12/30 10:12:39;;;;;;;5.33;3.87;;;;;;;2.80;85.08;99459.94;4970716;28;20595;-69
2020/12/30 10:15:10;;;;;;;6.97;4.40;;;;;;;2.62;86.83;99466.16;4965350;28;20572;-69
2020/12/30 10:17:37;;;;;;;5.23;4.00;;;;;;;2.44;88.21;99466.31;4951073;28;20047;-69
2020/12/30 10:20:05;;;;;;;6.70;4.57;;;;;;;2.31;88.96;99464.63;4978561;28;20131;-69
2020/12/30 10:22:31;;;;;;;8.47;4.67;;;;;;;2.30;89.52;99460.31;4969591;28;20038;-69
2020/12/30 10:25:02;;;;;;;6.13;4.17;;;;;;;2.21;89.22;99464.69;4988008;28;20034;-71
2020/12/30 10:27:28;;;;;;;11.00;7.33;;;;;;;2.16;90.28;99461.25;4968848;28;20517;-71
2020/12/30 10:29:55;;;;;;;7.20;4.67;;;;;;;2.15;90.40;99459.50;4968283;28;20047;-71
2020/12/30 10:32:21;;;;;;;7.03;4.77;;;;;;;2.21;90.06;99456.88;4955689;28;20085;-71
2020/12/30 10:34:48;;;;;;;6.07;4.80;;;;;;;2.34;90.00;99460.25;4945361;28;20105;-71
2020/12/30 10:37:17;;;;;;;6.83;4.73;;;;;;;2.95;88.79;99456.34;4977061;28;20046;-71
2020/12/30 10:39:48;;;;;;;6.40;4.30;;;;;;;3.98;85.40;99456.06;4967299;28;20637;-71
2020/12/30 10:42:15;;;;;;;5.87;3.83;;;;;;;5.17;79.73;99451.59;4981028;28;20066;-71
2020/12/30 10:44:43;;;;;;;5.67;3.30;;;;;;;6.45;72.79;99446.38;4970702;28;20054;-71
2020/12/30 10:47:10;;;;;;;6.70;3.93;;;;;;;7.85;68.85;99441.84;4977626;28;20048;-71
2020/12/30 10:49:36;;;;;;;4.60;3.13;;;;;;;8.85;65.39;99431.78;4986942;28;20046;-71
2020/12/30 10:52:03;;;;;;;4.30;2.90;;;;;;;10.04;62.30;99433.66;4947596;28;20049;-72
2020/12/30 10:54:29;;;;;;;4.70;4.22;;;;;;;10.67;55.83;99434.72;4957831;28;20045;-72
2020/12/30 10:56:56;;;;;;;5.32;3.28;;;;;;;11.23;57.65;99425.38;4957303;28;20101;-71
2020/12/30 10:59:22;;;;;;;3.72;2.83;;;;;;;11.74;55.81;99416.09;4983821;28;20066;-71
2020/12/30 11:01:52;;;;;;;5.85;2.80;;;;;;;11.97;49.64;99418.59;4971249;28;20074;-71
2020/12/30 11:04:20;;;;;;;3.90;2.90;;;;;;;12.15;50.11;99421.31;4976756;28;20443;-71
2020/12/30 11:06:46;;;;;;;3.95;2.80;;;;;;;12.31;50.48;99423.16;4969682;28;20070;-71
2020/12/30 11:09:13;;;;;;;4.85;2.88;;;;;;;12.34;48.32;99419.50;4968867;28;20671;-71
2020/12/30 11:11:40;;;;;;;3.97;3.05;;;;;;;12.07;50.21;99424.31;4966364;28;20052;-71
2020/12/30 11:14:07;;;;;;;4.03;3.53;;;;;;;12.59;49.70;99414.75;4961696;28;20049;-71
2020/12/30 11:16:33;;;;;;;4.05;3.65;;;;;;;11.78;50.55;99425.63;4962891;28;20097;-71
2020/12/30 11:18:59;;;;;;;3.45;2.70;;;;;;;12.81;48.58;99408.41;4974365;28;20070;-71
2020/12/30 11:21:26;;;;;;;2.63;2.42;;;;;;;13.02;46.26;99412.63;4967521;28;20078;-71
2020/12/30 11:23:52;;;;;;;4.60;2.97;;;;;;;12.21;46.92;99415.72;4962669;28;20701;-71
2020/12/30 11:26:18;;;;;;;4.93;3.15;;;;;;;10.28;52.52;99421.34;4965349;28;20038;-70
2020/12/30 11:28:44;;;;;;;3.22;2.88;;;;;;;8.51;57.63;99426.75;4965133;28;20047;-71